LTBA/IST METAR and TAF weather

Enter ICAO airport designator
Station Type Date Time Source
LTBA METAR 2019/08/19 22:20 UTC NOAA

LTBA 192220Z 05005KT 020V080 CAVOK 23/17 Q1017 NOSIG


Station Type Date Time Source
LTBA Decoded METAR 2019/08/19 22:20 UTC NOAA

Istanbul / Ataturk, Turkey (LTBA) 40-58N 028-49E 37M
Aug 19, 2019 - 06:20 PM EDT / 2019.08.19 2220 UTC
Wind: from the NE (050 degrees) at 6 MPH (5 KT) (direction variable):0
Visibility: greater than 7 mile(s):0
Temperature: 73 F (23 C)
Dew Point: 62 F (17 C)
Relative Humidity: 68%
Pressure (altimeter): 30.03 in. Hg (1017 hPa)
ob: LTBA 192220Z 05005KT 020V080 CAVOK 23/17 Q1017 NOSIG
cycle: 22

Station Type Date Time Source
LTBA TAF 2019/08/19 18:03 UTC NOAA

TAF LTBA 191640Z 1918/2024 02016KT 9999 SCT030
BECMG 1918/1921 02006KT PROB40 2004/2007 -SHRA FEW017TCU BKN032
BECMG 2005/2008 02016KT
TEMPO 2008/2011 -SHRA FEW017CB BKN032
BECMG 2016/2020 02005KT

Example: see airport list